Lower Stanley, Idaho
Current Conditions -  °F | °C
As of 10:55 AM on Sunday 21 Dec 2014 (Local Time) from KLLJ Reporting Station
Light Rain Light Rain  
Wind Chill: 32°   Ceiling: 3800
Heat Index: 37°   Visibility: 10mi
Dew Point: 36°   Wind: 7mph
Humidity: 96%   Direction: NA
Pressure: 29.76"   Gusts: NA
Location:  44.3379°N, 114.824°W
Report Text: KLLJ 211755Z AUTO VRB06KT 10SM -RA BKN038 OVC060 03/02 A2976 RMK AO2 SLP082 P0004 60013 T00280022 10033 20011 51014
Loading
Personal Weather Stations






























Interactive Weather Map New forecast layout! Learn more

10-Day Weather Forecast

Advertisements
Track Severe Weather on mobile